Darstellungsparameter: Aktuell verwendete Einstellungen:
Skalierung der Graphiken ... ?
xyx+y,   Skalierungsfaktor:      Skalierung: Modus: x, Faktor: 1
Darstellungszeitraum ... ?
Vom - - bis: - -   Zeitraum: 28.02.2003 - 28.02.2003
Min/Max/Avg-Anzeige ... ?
Zeige MMA aktuell
Zeige MMA Monat
Zeige MMA alles
Zeige --A aktuell
Zeige --A Monat
Zeige --A alles
Keine MMA-Anzeige
MMA:
Minimum Maximum Average (ber die Originaldaten)
MMA-Basis: 23.02.2003 - 30.09.2000
Quicknavigation für Darstellung... ?
Tage:      1T, 2T, 3T, 5T -1T -2T -3T -5T +1T +2T +3T +5T
Wochen: 1W, 2W, 3W -1W -2W -3W +1W +2W +3W
Monate: 1M, 3M, 6M -1M -3M -6M +1M +3M +6M
Jahre:    1J, 3J, 5J, 10J -1J -3J -5J -10J +1J +3J +5J +10J
Nutze für die Darstellung ... ?
Originaldaten oder Mittelwerte auf ...
Stundenbasis Tagesbasis Wochenbasis
Monatsbasis Jahresbasis      Datenbasis: Original-Daten
Darstellen als:
Statistik (Auto) Statistik J:M      Darstellung:
Zur Graphik,    zurück zur Übersicht aller Sensoren.
 
Tabellarische Datenbersicht: ?
 
Sensor: Nr:Datum:Temp:Abs-Feuchte:Windchill:Wind:
Aussen-T/F 1 28-02-2003 00:00:10 4.4 C 4.7 g/m*3 4.4 C 0 km/h
2 28-02-2003 00:02:10 4.4 C 4.7 g/m*3 4.4 C 0 km/h
3 28-02-2003 00:06:10 4.3 C 4.67 g/m*3 4.3 C 0 km/h
4 28-02-2003 00:08:10 4.3 C 4.67 g/m*3 4.3 C 0 km/h
5 28-02-2003 00:12:10 4 C 4.64 g/m*3 4 C 0 km/h
6 28-02-2003 00:14:10 4 C 4.64 g/m*3 4 C 0 km/h
7 28-02-2003 00:18:10 3.8 C 4.64 g/m*3 3.8 C 0 km/h
8 28-02-2003 00:20:10 3.8 C 4.64 g/m*3 3.8 C 0 km/h
9 28-02-2003 00:24:10 3.8 C 4.71 g/m*3 3.8 C 0 km/h
10 28-02-2003 00:26:10 3.8 C 4.71 g/m*3 3.8 C 0 km/h
11 28-02-2003 00:30:10 3.8 C 4.71 g/m*3 3.8 C 0 km/h
12 28-02-2003 00:32:10 3.8 C 4.71 g/m*3 3.8 C 0 km/h
13 28-02-2003 00:36:10 3.7 C 4.67 g/m*3 3.7 C 0 km/h
14 28-02-2003 00:38:10 3.7 C 4.67 g/m*3 3.7 C 0 km/h
15 28-02-2003 00:42:10 3.6 C 4.64 g/m*3 3.6 C 0 km/h
16 28-02-2003 00:44:10 3.6 C 4.64 g/m*3 3.6 C 0 km/h
17 28-02-2003 00:48:10 3.5 C 4.61 g/m*3 3.5 C 0 km/h
18 28-02-2003 00:50:10 3.5 C 4.61 g/m*3 3.5 C 0 km/h
19 28-02-2003 00:54:10 3.5 C 4.61 g/m*3 3.5 C 0 km/h
20 28-02-2003 00:56:10 3.5 C 4.61 g/m*3 3.5 C 0 km/h
21 28-02-2003 01:00:10 3.6 C 4.64 g/m*3 3.6 C 0 km/h
22 28-02-2003 01:02:10 3.6 C 4.64 g/m*3 3.6 C 0 km/h
23 28-02-2003 01:06:10 3.6 C 4.7 g/m*3 3.6 C 0 km/h
24 28-02-2003 01:08:10 3.6 C 4.7 g/m*3 3.6 C 0 km/h
25 28-02-2003 01:12:10 3.4 C 4.64 g/m*3 3.4 C 0 km/h
Sensor: Nr:Datum:Temp:Abs-Feuchte:Windchill:Wind:
Aussen-T/F 26 28-02-2003 01:14:10 3.4 C 4.64 g/m*3 3.4 C 0 km/h
27 28-02-2003 01:18:10 3.4 C 4.64 g/m*3 3.4 C 0 km/h
28 28-02-2003 01:20:10 3.4 C 4.64 g/m*3 3.4 C 0 km/h
29 28-02-2003 01:24:10 3.6 C 4.7 g/m*3 3.6 C 0 km/h
30 28-02-2003 01:26:10 3.6 C 4.7 g/m*3 3.6 C 0 km/h
31 28-02-2003 01:30:10 3.7 C 4.74 g/m*3 3.7 C 0 km/h
32 28-02-2003 01:32:10 3.7 C 4.74 g/m*3 3.7 C 0 km/h
33 28-02-2003 01:36:10 3.8 C 4.77 g/m*3 3.8 C 0 km/h
34 28-02-2003 01:38:10 3.8 C 4.77 g/m*3 3.8 C 0 km/h
35 28-02-2003 01:42:10 3.8 C 4.71 g/m*3 3.8 C 0 km/h
36 28-02-2003 01:44:10 3.8 C 4.71 g/m*3 3.8 C 0 km/h
37 28-02-2003 01:48:10 4 C 4.7 g/m*3 4 C 0 km/h
38 28-02-2003 01:50:10 4 C 4.7 g/m*3 4 C 0 km/h
39 28-02-2003 01:54:10 4 C 4.7 g/m*3 4 C 0 km/h
40 28-02-2003 01:56:10 4 C 4.7 g/m*3 4 C 0 km/h
41 28-02-2003 02:00:10 4.1 C 4.67 g/m*3 4.1 C 0 km/h
42 28-02-2003 02:02:10 4.1 C 4.67 g/m*3 4.1 C 0 km/h
43 28-02-2003 02:06:10 3.8 C 4.64 g/m*3 3.8 C 0 km/h
44 28-02-2003 02:08:10 3.8 C 4.64 g/m*3 3.8 C 0 km/h
45 28-02-2003 02:12:10 3.8 C 4.71 g/m*3 3.8 C 0 km/h
46 28-02-2003 02:14:10 3.8 C 4.71 g/m*3 3.8 C 0 km/h
47 28-02-2003 02:18:10 3.8 C 4.71 g/m*3 3.8 C 0 km/h
48 28-02-2003 02:20:10 3.8 C 4.71 g/m*3 3.8 C 0 km/h
49 28-02-2003 02:24:10 3.9 C 4.74 g/m*3 3.9 C 0 km/h
50 28-02-2003 02:26:10 3.9 C 4.74 g/m*3 3.9 C 0 km/h
Sensor: Nr:Datum:Temp:Abs-Feuchte:Windchill:Wind:
Aussen-T/F 51 28-02-2003 02:30:10 3.8 C 4.71 g/m*3 3.8 C 0 km/h
52 28-02-2003 02:32:10 3.8 C 4.71 g/m*3 3.8 C 0 km/h
53 28-02-2003 02:36:10 3.7 C 4.67 g/m*3 3.7 C 0 km/h
54 28-02-2003 02:38:10 3.7 C 4.67 g/m*3 3.7 C 0 km/h
55 28-02-2003 02:42:10 3.6 C 4.64 g/m*3 3.6 C 0 km/h
56 28-02-2003 02:44:10 3.6 C 4.64 g/m*3 3.6 C 0 km/h
57 28-02-2003 02:48:10 3.5 C 4.61 g/m*3 3.5 C 0 km/h
58 28-02-2003 02:50:10 3.5 C 4.61 g/m*3 3.5 C 0 km/h
59 28-02-2003 02:54:10 3.4 C 4.58 g/m*3 3.4 C 0 km/h
60 28-02-2003 02:56:10 3.4 C 4.58 g/m*3 3.4 C 0 km/h
61 28-02-2003 03:00:10 3.3 C 4.61 g/m*3 3.3 C 0 km/h
62 28-02-2003 03:02:10 3.3 C 4.61 g/m*3 3.3 C 0 km/h
63 28-02-2003 03:06:10 3.2 C 4.58 g/m*3 3.2 C 0 km/h
64 28-02-2003 03:08:10 3.2 C 4.58 g/m*3 3.2 C 0 km/h
65 28-02-2003 03:12:10 3.1 C 4.61 g/m*3 3.1 C 0 km/h
66 28-02-2003 03:14:10 3.1 C 4.61 g/m*3 3.1 C 0 km/h
67 28-02-2003 03:18:10 3.2 C 4.7 g/m*3 3.2 C 0 km/h
68 28-02-2003 03:20:10 3.2 C 4.7 g/m*3 3.2 C 0 km/h
69 28-02-2003 03:24:10 3.4 C 4.7 g/m*3 3.4 C 0 km/h
70 28-02-2003 03:26:10 3.4 C 4.7 g/m*3 3.4 C 0 km/h
71 28-02-2003 03:30:10 3.4 C 4.7 g/m*3 3.4 C 0 km/h
72 28-02-2003 03:32:10 3.4 C 4.7 g/m*3 3.4 C 0 km/h
73 28-02-2003 03:36:10 3.5 C 4.67 g/m*3 3.5 C 0 km/h
74 28-02-2003 03:38:10 3.5 C 4.67 g/m*3 3.5 C 0 km/h
75 28-02-2003 03:42:10 3.5 C 4.67 g/m*3 3.5 C 0 km/h
Sensor: Nr:Datum:Temp:Abs-Feuchte:Windchill:Wind:
Aussen-T/F 76 28-02-2003 03:44:10 3.5 C 4.67 g/m*3 3.5 C 0 km/h
77 28-02-2003 03:48:10 3.6 C 4.7 g/m*3 3.6 C 0 km/h
78 28-02-2003 03:50:10 3.6 C 4.7 g/m*3 3.6 C 0 km/h
79 28-02-2003 03:54:10 3.5 C 4.61 g/m*3 3.5 C 0 km/h
80 28-02-2003 03:56:10 3.5 C 4.61 g/m*3 3.5 C 0 km/h
81 28-02-2003 04:00:10 3.4 C 4.64 g/m*3 3.4 C 0 km/h
82 28-02-2003 04:02:10 3.4 C 4.64 g/m*3 3.4 C 0 km/h
83 28-02-2003 04:06:10 3.4 C 4.64 g/m*3 3.4 C 0 km/h
84 28-02-2003 04:08:10 3.4 C 4.64 g/m*3 3.4 C 0 km/h
85 28-02-2003 04:12:10 3.2 C 4.58 g/m*3 3.2 C 0 km/h
86 28-02-2003 04:14:10 3.2 C 4.58 g/m*3 3.2 C 0 km/h
87 28-02-2003 04:18:10 2.9 C 4.55 g/m*3 2.9 C 0 km/h
88 28-02-2003 04:20:10 2.9 C 4.55 g/m*3 2.9 C 0 km/h
89 28-02-2003 04:24:10 2.9 C 4.61 g/m*3 2.9 C 0 km/h
90 28-02-2003 04:26:10 2.9 C 4.61 g/m*3 2.9 C 0 km/h
91 28-02-2003 04:30:10 3 C 4.64 g/m*3 3 C 0 km/h
92 28-02-2003 04:32:10 3 C 4.64 g/m*3 3 C 0 km/h
93 28-02-2003 04:36:10 3.1 C 4.67 g/m*3 3.1 C 0 km/h
94 28-02-2003 04:38:10 3.1 C 4.67 g/m*3 3.1 C 0 km/h
95 28-02-2003 04:42:10 3.3 C 4.67 g/m*3 3.3 C 0 km/h
96 28-02-2003 04:44:10 3.3 C 4.67 g/m*3 3.3 C 0 km/h
97 28-02-2003 04:48:10 3.3 C 4.67 g/m*3 3.3 C 0 km/h
98 28-02-2003 04:50:10 3.3 C 4.67 g/m*3 3.3 C 0 km/h
99 28-02-2003 04:54:10 3.3 C 4.67 g/m*3 3.3 C 0 km/h
100 28-02-2003 04:56:10 3.3 C 4.67 g/m*3 3.3 C 0 km/h
Sensor: Nr:Datum:Temp:Abs-Feuchte:Windchill:Wind:
Aussen-T/F 101 28-02-2003 05:00:10 3.4 C 4.7 g/m*3 3.4 C 0 km/h
102 28-02-2003 05:02:10 3.4 C 4.7 g/m*3 3.4 C 0 km/h
103 28-02-2003 05:06:10 3.5 C 4.67 g/m*3 3.5 C 0 km/h
104 28-02-2003 05:08:10 3.5 C 4.67 g/m*3 3.5 C 0 km/h
105 28-02-2003 05:12:10 3.5 C 4.67 g/m*3 3.5 C 0 km/h
106 28-02-2003 05:14:10 3.5 C 4.67 g/m*3 3.5 C 0 km/h
107 28-02-2003 05:18:10 3.5 C 4.67 g/m*3 3.5 C 0 km/h
108 28-02-2003 05:20:10 3.5 C 4.67 g/m*3 3.5 C 0 km/h
109 28-02-2003 05:24:10 3.6 C 4.7 g/m*3 3.6 C 0 km/h
110 28-02-2003 05:26:10 3.6 C 4.7 g/m*3 3.6 C 0 km/h
111 28-02-2003 05:30:10 3.5 C 4.67 g/m*3 3.5 C 0 km/h
112 28-02-2003 05:32:10 3.5 C 4.67 g/m*3 3.5 C 0 km/h
113 28-02-2003 05:36:10 3.5 C 4.67 g/m*3 3.5 C 0 km/h
114 28-02-2003 05:38:10 3.5 C 4.67 g/m*3 3.5 C 0 km/h
115 28-02-2003 05:42:10 3.4 C 4.64 g/m*3 3.4 C 0 km/h
116 28-02-2003 05:44:10 3.4 C 4.64 g/m*3 3.4 C 0 km/h
117 28-02-2003 05:48:10 3.4 C 4.64 g/m*3 3.4 C 0 km/h
118 28-02-2003 05:50:10 3.4 C 4.64 g/m*3 3.4 C 0 km/h
119 28-02-2003 05:54:10 3.4 C 4.64 g/m*3 3.4 C 0 km/h
120 28-02-2003 05:56:10 3.4 C 4.64 g/m*3 3.4 C 0 km/h
121 28-02-2003 06:00:10 3.5 C 4.67 g/m*3 3.5 C 0 km/h
122 28-02-2003 06:02:10 3.5 C 4.67 g/m*3 3.5 C 0 km/h
123 28-02-2003 06:06:10 3.5 C 4.67 g/m*3 3.5 C 0 km/h
124 28-02-2003 06:08:10 3.5 C 4.67 g/m*3 3.5 C 0 km/h
125 28-02-2003 06:12:10 3.5 C 4.67 g/m*3 3.5 C 0 km/h
Sensor: Nr:Datum:Temp:Abs-Feuchte:Windchill:Wind:
Aussen-T/F 126 28-02-2003 06:14:10 3.5 C 4.67 g/m*3 3.5 C 0 km/h
127 28-02-2003 06:18:10 3.5 C 4.67 g/m*3 3.5 C 0 km/h
128 28-02-2003 06:20:10 3.5 C 4.67 g/m*3 3.5 C 0 km/h
129 28-02-2003 06:24:10 3.5 C 4.67 g/m*3 3.5 C 0 km/h
130 28-02-2003 06:26:10 3.5 C 4.67 g/m*3 3.5 C 0 km/h
131 28-02-2003 06:30:10 3.5 C 4.67 g/m*3 3.5 C 0 km/h
132 28-02-2003 06:32:10 3.5 C 4.67 g/m*3 3.5 C 0 km/h
133 28-02-2003 06:36:10 3.5 C 4.67 g/m*3 3.5 C 0 km/h
134 28-02-2003 06:38:10 3.5 C 4.67 g/m*3 3.5 C 0 km/h
135 28-02-2003 06:42:10 3.5 C 4.67 g/m*3 3.5 C 0 km/h
136 28-02-2003 06:44:10 3.5 C 4.67 g/m*3 3.5 C 0 km/h
137 28-02-2003 06:48:10 3.4 C 4.64 g/m*3 3.4 C 0 km/h
138 28-02-2003 06:50:10 3.4 C 4.64 g/m*3 3.4 C 0 km/h
139 28-02-2003 06:54:10 3.4 C 4.64 g/m*3 3.4 C 0 km/h
140 28-02-2003 06:56:10 3.4 C 4.64 g/m*3 3.4 C 0 km/h
141 28-02-2003 07:00:10 3.4 C 4.64 g/m*3 3.4 C 0 km/h
142 28-02-2003 07:02:10 3.4 C 4.64 g/m*3 3.4 C 0 km/h
143 28-02-2003 07:06:10 3.4 C 4.7 g/m*3 3.4 C 0 km/h
144 28-02-2003 07:08:10 3.4 C 4.7 g/m*3 3.4 C 0 km/h
145 28-02-2003 07:12:10 3.4 C 4.7 g/m*3 3.4 C 0 km/h
146 28-02-2003 07:14:10 3.4 C 4.7 g/m*3 3.4 C 0 km/h
147 28-02-2003 07:18:10 3.4 C 4.7 g/m*3 3.4 C 0 km/h
148 28-02-2003 07:20:10 3.4 C 4.7 g/m*3 3.4 C 0 km/h
149 28-02-2003 07:24:10 3.4 C 4.7 g/m*3 3.4 C 0 km/h
150 28-02-2003 07:26:10 3.4 C 4.7 g/m*3 3.4 C 0 km/h
Sensor: Nr:Datum:Temp:Abs-Feuchte:Windchill:Wind:
Aussen-T/F 151 28-02-2003 07:30:10 3.4 C 4.7 g/m*3 3.4 C 0 km/h
152 28-02-2003 07:32:10 3.4 C 4.7 g/m*3 3.4 C 0 km/h
153 28-02-2003 07:36:10 3.5 C 4.73 g/m*3 3.5 C 0 km/h
154 28-02-2003 07:38:10 3.5 C 4.73 g/m*3 3.5 C 0 km/h
155 28-02-2003 07:42:10 3.5 C 4.73 g/m*3 3.5 C 0 km/h
156 28-02-2003 07:44:10 3.5 C 4.73 g/m*3 3.5 C 0 km/h
157 28-02-2003 07:48:10 3.5 C 4.73 g/m*3 3.5 C 0 km/h
158 28-02-2003 07:50:10 3.5 C 4.73 g/m*3 3.5 C 0 km/h
159 28-02-2003 07:54:10 3.6 C 4.77 g/m*3 3.6 C 0 km/h
160 28-02-2003 07:56:10 3.6 C 4.77 g/m*3 3.6 C 0 km/h
161 28-02-2003 08:00:10 3.7 C 4.8 g/m*3 3.7 C 0 km/h
162 28-02-2003 08:02:10 3.7 C 4.8 g/m*3 3.7 C 0 km/h
163 28-02-2003 08:06:10 3.7 C 4.74 g/m*3 3.7 C 0 km/h
164 28-02-2003 08:08:10 3.7 C 4.74 g/m*3 3.7 C 0 km/h
165 28-02-2003 08:12:10 3.7 C 4.74 g/m*3 3.7 C 0 km/h
166 28-02-2003 08:14:10 3.7 C 4.74 g/m*3 3.7 C 0 km/h
167 28-02-2003 08:18:10 3.8 C 4.77 g/m*3 3.8 C 0 km/h
168 28-02-2003 08:20:10 3.8 C 4.77 g/m*3 3.8 C 0 km/h
169 28-02-2003 08:24:10 3.8 C 4.77 g/m*3 3.8 C 0 km/h
170 28-02-2003 08:26:10 3.8 C 4.77 g/m*3 3.8 C 0 km/h
171 28-02-2003 08:30:10 3.8 C 4.77 g/m*3 3.8 C 0 km/h
172 28-02-2003 08:32:10 3.8 C 4.77 g/m*3 3.8 C 0 km/h
173 28-02-2003 08:36:10 3.9 C 4.74 g/m*3 3.9 C 0 km/h
174 28-02-2003 08:38:10 3.9 C 4.74 g/m*3 3.9 C 0 km/h
175 28-02-2003 08:42:10 4 C 4.7 g/m*3 4 C 0 km/h
Sensor: Nr:Datum:Temp:Abs-Feuchte:Windchill:Wind:
Aussen-T/F 176 28-02-2003 08:44:10 4 C 4.7 g/m*3 4 C 0 km/h
177 28-02-2003 08:48:10 4.3 C 4.8 g/m*3 4.3 C 0 km/h
178 28-02-2003 08:50:10 4.3 C 4.8 g/m*3 4.3 C 0 km/h
179 28-02-2003 08:54:10 4.2 C 4.77 g/m*3 4.2 C 0 km/h
180 28-02-2003 08:56:10 4.2 C 4.77 g/m*3 4.2 C 0 km/h
181 28-02-2003 09:00:10 4.3 C 4.8 g/m*3 4.3 C 0 km/h
182 28-02-2003 09:02:10 4.3 C 4.8 g/m*3 4.3 C 0 km/h
183 28-02-2003 09:06:10 4.3 C 4.8 g/m*3 4.3 C 0 km/h
184 28-02-2003 09:08:10 4.3 C 4.8 g/m*3 4.3 C 0 km/h
185 28-02-2003 09:12:10 4.4 C 4.83 g/m*3 4.4 C 0 km/h
186 28-02-2003 09:14:10 4.4 C 4.83 g/m*3 4.4 C 0 km/h
187 28-02-2003 09:18:10 4.4 C 4.83 g/m*3 4.4 C 0 km/h
188 28-02-2003 09:20:10 4.4 C 4.83 g/m*3 4.4 C 0 km/h
189 28-02-2003 09:24:10 4.5 C 4.86 g/m*3 4.5 C 0 km/h
190 28-02-2003 09:26:10 4.5 C 4.86 g/m*3 4.5 C 0 km/h
191 28-02-2003 09:30:10 4.6 C 4.9 g/m*3 4.6 C 0 km/h
192 28-02-2003 09:32:10 4.6 C 4.9 g/m*3 4.6 C 0 km/h
193 28-02-2003 09:36:10 4.7 C 4.86 g/m*3 4.7 C 0 km/h
194 28-02-2003 09:38:10 4.7 C 4.86 g/m*3 4.7 C 0 km/h
195 28-02-2003 09:42:10 4.7 C 4.86 g/m*3 4.7 C 0 km/h
196 28-02-2003 09:44:10 4.7 C 4.86 g/m*3 4.7 C 0 km/h
197 28-02-2003 09:48:10 4.8 C 4.83 g/m*3 4.8 C 0 km/h
198 28-02-2003 09:50:10 4.8 C 4.83 g/m*3 4.8 C 0 km/h
199 28-02-2003 09:54:10 4.9 C 4.86 g/m*3 4.9 C 0 km/h
200 28-02-2003 09:56:10 4.9 C 4.86 g/m*3 4.9 C 0 km/h
Sensor: Nr:Datum:Temp:Abs-Feuchte:Windchill:Wind:
Aussen-T/F 201 28-02-2003 10:00:10 4.9 C 4.86 g/m*3 4.9 C 0 km/h
202 28-02-2003 10:02:10 4.9 C 4.86 g/m*3 4.9 C 0 km/h
203 28-02-2003 10:06:10 5.1 C 4.86 g/m*3 5.1 C 0 km/h
204 28-02-2003 10:08:10 5.1 C 4.86 g/m*3 5.1 C 0 km/h
205 28-02-2003 10:12:10 5.3 C 4.92 g/m*3 5.3 C 0 km/h
206 28-02-2003 10:14:10 5.3 C 4.92 g/m*3 5.3 C 0 km/h
207 28-02-2003 10:18:10 5.6 C 4.95 g/m*3 5.6 C 0 km/h
208 28-02-2003 10:20:10 5.6 C 4.95 g/m*3 5.6 C 0 km/h
209 28-02-2003 10:24:10 5.8 C 5.01 g/m*3 5.8 C 0 km/h
210 28-02-2003 10:26:10 5.8 C 5.01 g/m*3 5.8 C 0 km/h
211 28-02-2003 10:30:10 6 C 4.94 g/m*3 6 C 0 km/h
212 28-02-2003 10:32:10 6 C 4.94 g/m*3 6 C 0 km/h
213 28-02-2003 10:36:10 6.3 C 4.96 g/m*3 6.3 C 0 km/h
214 28-02-2003 10:38:10 6.3 C 4.96 g/m*3 6.3 C 0 km/h
215 28-02-2003 10:42:10 6.5 C 4.95 g/m*3 6.5 C 0 km/h
216 28-02-2003 10:44:10 6.5 C 4.95 g/m*3 6.5 C 0 km/h
217 28-02-2003 10:48:10 6.9 C 5.08 g/m*3 6.9 C 0 km/h
218 28-02-2003 10:50:10 6.9 C 5.08 g/m*3 6.9 C 0 km/h
219 28-02-2003 10:54:10 7.1 C 4.99 g/m*3 7.1 C 0 km/h
220 28-02-2003 10:56:10 7.1 C 4.99 g/m*3 7.1 C 0 km/h
221 28-02-2003 11:00:10 7.3 C 4.98 g/m*3 7.3 C 0 km/h
222 28-02-2003 11:02:10 7.3 C 4.98 g/m*3 7.3 C 0 km/h
223 28-02-2003 11:06:10 7.4 C 4.93 g/m*3 7.4 C 0 km/h
224 28-02-2003 11:08:10 7.4 C 4.93 g/m*3 7.4 C 0 km/h
225 28-02-2003 11:12:10 7.6 C 4.99 g/m*3 7.6 C 0 km/h
Sensor: Nr:Datum:Temp:Abs-Feuchte:Windchill:Wind:
Aussen-T/F 226 28-02-2003 11:14:10 7.6 C 4.99 g/m*3 7.6 C 0 km/h
227 28-02-2003 11:18:10 7.4 C 4.85 g/m*3 7.4 C 0 km/h
228 28-02-2003 11:20:10 7.4 C 4.85 g/m*3 7.4 C 0 km/h
229 28-02-2003 11:24:10 7.5 C 4.96 g/m*3 7.5 C 0 km/h
230 28-02-2003 11:26:10 7.5 C 4.96 g/m*3 7.5 C 0 km/h
231 28-02-2003 11:30:10 7.9 C 5.09 g/m*3 7.9 C 0 km/h
232 28-02-2003 11:32:10 7.9 C 5.09 g/m*3 7.9 C 0 km/h
233 28-02-2003 11:36:10 8 C 4.96 g/m*3 8 C 0 km/h
234 28-02-2003 11:38:10 8 C 4.96 g/m*3 8 C 0 km/h
235 28-02-2003 11:42:10 8.2 C 5.02 g/m*3 8.2 C 0 km/h
236 28-02-2003 11:44:10 8.2 C 5.02 g/m*3 8.2 C 0 km/h
237 28-02-2003 11:48:10 8.4 C 5.09 g/m*3 8.4 C 0 km/h
238 28-02-2003 11:50:10 8.4 C 5.09 g/m*3 8.4 C 0 km/h
239 28-02-2003 11:54:10 8.9 C 5.26 g/m*3 8.9 C 0 km/h
240 28-02-2003 11:56:10 8.9 C 5.26 g/m*3 8.9 C 0 km/h
241 28-02-2003 12:00:41 9.1 C 5.23 g/m*3 9.1 C 0 km/h
242 28-02-2003 12:02:10 9.1 C 5.23 g/m*3 9.1 C 0 km/h
243 28-02-2003 12:06:41 9.5 C 5.28 g/m*3 9.5 C 0 km/h
244 28-02-2003 12:08:10 9.5 C 5.28 g/m*3 9.5 C 0 km/h
245 28-02-2003 12:12:41 9.8 C 5.29 g/m*3 9.8 C 0 km/h
246 28-02-2003 12:14:10 9.8 C 5.29 g/m*3 9.8 C 0 km/h
247 28-02-2003 12:18:41 10.1 C 5.3 g/m*3 10.1 C 0 km/h
248 28-02-2003 12:20:10 10.1 C 5.3 g/m*3 10.1 C 0 km/h
249 28-02-2003 12:24:41 10.3 C 5.36 g/m*3 10.3 C 0 km/h
250 28-02-2003 12:26:10 10.3 C 5.36 g/m*3 10.3 C 0 km/h
Sensor: Nr:Datum:Temp:Abs-Feuchte:Windchill:Wind:
Aussen-T/F 251 28-02-2003 12:30:41 10.5 C 5.43 g/m*3 10.5 C 0 km/h
252 28-02-2003 12:32:10 10.5 C 5.43 g/m*3 10.5 C 0 km/h
253 28-02-2003 12:36:41 10.8 C 5.54 g/m*3 10.8 C 0 km/h
254 28-02-2003 12:38:10 10.8 C 5.54 g/m*3 10.8 C 0 km/h
255 28-02-2003 12:42:41 11 C 5.41 g/m*3 11 C 0 km/h
256 28-02-2003 12:44:10 11 C 5.41 g/m*3 11 C 0 km/h
257 28-02-2003 12:48:41 11.3 C 5.61 g/m*3 11.3 C 0 km/h
258 28-02-2003 12:50:10 11.3 C 5.61 g/m*3 11.3 C 0 km/h
259 28-02-2003 12:54:41 11.3 C 5.61 g/m*3 11.3 C 0 km/h
260 28-02-2003 12:56:10 11.3 C 5.61 g/m*3 11.3 C 0 km/h
261 28-02-2003 13:00:41 11.4 C 5.75 g/m*3 11.4 C 0 km/h
262 28-02-2003 13:02:10 11.4 C 5.75 g/m*3 11.4 C 0 km/h
263 28-02-2003 13:06:41 11.8 C 5.89 g/m*3 11.8 C 0 km/h
264 28-02-2003 13:08:10 11.8 C 5.89 g/m*3 11.8 C 0 km/h
265 28-02-2003 13:12:41 12 C 5.86 g/m*3 12 C 0 km/h
266 28-02-2003 13:14:10 12 C 5.86 g/m*3 12 C 0 km/h
267 28-02-2003 13:18:41 12 C 5.86 g/m*3 12 C 0 km/h
268 28-02-2003 13:20:10 12 C 5.86 g/m*3 12 C 0 km/h
269 28-02-2003 13:24:41 12.1 C 5.79 g/m*3 12.1 C 0 km/h
270 28-02-2003 13:26:10 12.1 C 5.79 g/m*3 12.1 C 0 km/h
271 28-02-2003 13:30:41 12.3 C 5.97 g/m*3 12.3 C 0 km/h
272 28-02-2003 13:32:10 12.3 C 5.97 g/m*3 12.3 C 0 km/h
273 28-02-2003 13:36:41 12.5 C 6.05 g/m*3 12.5 C 0 km/h
274 28-02-2003 13:38:10 12.5 C 6.05 g/m*3 12.5 C 0 km/h
275 28-02-2003 13:42:41 12.3 C 5.97 g/m*3 12.3 C 0 km/h
Sensor: Nr:Datum:Temp:Abs-Feuchte:Windchill:Wind:
Aussen-T/F 276 28-02-2003 13:44:10 12.3 C 5.97 g/m*3 12.3 C 0 km/h
277 28-02-2003 13:48:41 12.7 C 6.12 g/m*3 12.7 C 0 km/h
278 28-02-2003 13:50:10 12.7 C 6.12 g/m*3 12.7 C 0 km/h
279 28-02-2003 13:54:41 12.8 C 6.16 g/m*3 12.8 C 0 km/h
280 28-02-2003 13:56:10 12.8 C 6.16 g/m*3 12.8 C 0 km/h
281 28-02-2003 14:00:11 12.5 C 6.05 g/m*3 12.5 C 0 km/h
282 28-02-2003 14:02:10 12.5 C 6.05 g/m*3 12.5 C 0 km/h
283 28-02-2003 14:06:11 12.7 C 6.23 g/m*3 12.7 C 0 km/h
284 28-02-2003 14:08:10 12.7 C 6.23 g/m*3 12.7 C 0 km/h
285 28-02-2003 14:12:11 12.7 C 6.12 g/m*3 12.7 C 0 km/h
286 28-02-2003 14:14:10 12.7 C 6.12 g/m*3 12.7 C 0 km/h
287 28-02-2003 14:18:11 12.8 C 6.16 g/m*3 12.8 C 0 km/h
288 28-02-2003 14:20:10 12.8 C 6.16 g/m*3 12.8 C 0 km/h
289 28-02-2003 14:24:11 12.9 C 6.2 g/m*3 12.9 C 0 km/h
290 28-02-2003 14:26:10 12.9 C 6.2 g/m*3 12.9 C 0 km/h
291 28-02-2003 14:30:11 13 C 6.12 g/m*3 13 C 0 km/h
292 28-02-2003 14:32:10 13 C 6.12 g/m*3 13 C 0 km/h
293 28-02-2003 14:36:11 13.1 C 6.16 g/m*3 13.1 C 0 km/h
294 28-02-2003 14:38:10 13.1 C 6.16 g/m*3 13.1 C 0 km/h
295 28-02-2003 14:42:11 13.3 C 6.24 g/m*3 13.3 C 0 km/h
296 28-02-2003 14:44:10 13.3 C 6.24 g/m*3 13.3 C 0 km/h
297 28-02-2003 14:48:11 13.2 C 6.2 g/m*3 13.2 C 0 km/h
298 28-02-2003 14:50:10 13.2 C 6.2 g/m*3 13.2 C 0 km/h
299 28-02-2003 14:54:11 13.7 C 6.39 g/m*3 13.7 C 0 km/h
300 28-02-2003 14:56:10 13.7 C 6.39 g/m*3 13.7 C 0 km/h
Sensor: Nr:Datum:Temp:Abs-Feuchte:Windchill:Wind:
Aussen-T/F 301 28-02-2003 15:00:11 13.8 C 6.31 g/m*3 13.8 C 0 km/h
302 28-02-2003 15:02:10 13.8 C 6.31 g/m*3 13.8 C 0 km/h
303 28-02-2003 15:06:11 13.7 C 6.28 g/m*3 13.7 C 0 km/h
304 28-02-2003 15:08:10 13.7 C 6.28 g/m*3 13.7 C 0 km/h
305 28-02-2003 15:12:11 13.7 C 6.28 g/m*3 13.7 C 0 km/h
306 28-02-2003 15:14:10 13.7 C 6.28 g/m*3 13.7 C 0 km/h
307 28-02-2003 15:18:11 13.5 C 6.32 g/m*3 13.5 C 0 km/h
308 28-02-2003 15:20:10 13.5 C 6.32 g/m*3 13.5 C 0 km/h
309 28-02-2003 15:24:11 14 C 6.27 g/m*3 14 C 0 km/h
310 28-02-2003 15:26:10 14 C 6.27 g/m*3 14 C 0 km/h
311 28-02-2003 15:30:11 13.6 C 6.24 g/m*3 13.6 C 0 km/h
312 28-02-2003 15:32:10 13.6 C 6.24 g/m*3 13.6 C 0 km/h
313 28-02-2003 15:36:11 13.3 C 6.35 g/m*3 13.3 C 0 km/h
314 28-02-2003 15:38:10 13.3 C 6.35 g/m*3 13.3 C 0 km/h
315 28-02-2003 15:42:11 12.8 C 6.38 g/m*3 12.8 C 0 km/h
316 28-02-2003 15:44:10 12.8 C 6.38 g/m*3 12.8 C 0 km/h
317 28-02-2003 15:48:11 12.9 C 6.42 g/m*3 12.9 C 0 km/h
318 28-02-2003 15:50:10 12.9 C 6.42 g/m*3 12.9 C 0 km/h
319 28-02-2003 15:54:11 13.3 C 6.35 g/m*3 13.3 C 0 km/h
320 28-02-2003 15:56:10 13.3 C 6.35 g/m*3 13.3 C 0 km/h
321 28-02-2003 16:00:57 13.8 C 6.43 g/m*3 13.8 C 0 km/h
322 28-02-2003 16:02:10 13.8 C 6.43 g/m*3 13.8 C 0 km/h
323 28-02-2003 16:06:57 13.5 C 6.32 g/m*3 13.5 C 0 km/h
324 28-02-2003 16:08:10 13.5 C 6.32 g/m*3 13.5 C 0 km/h
325 28-02-2003 16:12:57 13.7 C 6.51 g/m*3 13.7 C 0 km/h
Sensor: Nr:Datum:Temp:Abs-Feuchte:Windchill:Wind:
Aussen-T/F 326 28-02-2003 16:14:10 13.7 C 6.51 g/m*3 13.7 C 0 km/h
327 28-02-2003 16:18:57 13.8 C 6.43 g/m*3 13.8 C 0 km/h
328 28-02-2003 16:20:10 13.8 C 6.43 g/m*3 13.8 C 0 km/h
329 28-02-2003 16:24:57 13.6 C 6.36 g/m*3 13.6 C 0 km/h
330 28-02-2003 16:26:10 13.6 C 6.36 g/m*3 13.6 C 0 km/h
331 28-02-2003 16:30:57 13.5 C 6.43 g/m*3 13.5 C 0 km/h
332 28-02-2003 16:32:10 13.5 C 6.43 g/m*3 13.5 C 0 km/h
333 28-02-2003 16:36:57 13.3 C 6.35 g/m*3 13.3 C 0 km/h
334 28-02-2003 16:38:10 13.3 C 6.35 g/m*3 13.3 C 0 km/h
335 28-02-2003 16:42:57 13.2 C 6.32 g/m*3 13.2 C 0 km/h
336 28-02-2003 16:44:10 13.2 C 6.32 g/m*3 13.2 C 0 km/h
337 28-02-2003 16:48:11 13 C 6.24 g/m*3 13 C 0 km/h
338 28-02-2003 16:50:10 13 C 6.24 g/m*3 13 C 0 km/h
339 28-02-2003 16:54:11 12.8 C 6.38 g/m*3 12.8 C 0 km/h
340 28-02-2003 16:56:10 12.8 C 6.38 g/m*3 12.8 C 0 km/h
341 28-02-2003 17:00:11 13 C 6.35 g/m*3 13 C 0 km/h
342 28-02-2003 17:02:10 13 C 6.35 g/m*3 13 C 0 km/h
343 28-02-2003 17:06:11 12.9 C 6.42 g/m*3 12.9 C 0 km/h
344 28-02-2003 17:08:10 12.9 C 6.42 g/m*3 12.9 C 0 km/h
345 28-02-2003 17:12:11 12.8 C 6.38 g/m*3 12.8 C 0 km/h
346 28-02-2003 17:14:10 12.8 C 6.38 g/m*3 12.8 C 0 km/h
347 28-02-2003 17:18:11 12.5 C 6.38 g/m*3 12.5 C 0 km/h
348 28-02-2003 17:20:10 12.5 C 6.38 g/m*3 12.5 C 0 km/h
349 28-02-2003 17:24:11 12.3 C 6.3 g/m*3 12.3 C 0 km/h
350 28-02-2003 17:26:10 12.3 C 6.3 g/m*3 12.3 C 0 km/h
Sensor: Nr:Datum:Temp:Abs-Feuchte:Windchill:Wind:
Aussen-T/F 351 28-02-2003 17:30:11 12.1 C 6.33 g/m*3 12.1 C 0 km/h
352 28-02-2003 17:32:10 12.1 C 6.33 g/m*3 12.1 C 0 km/h
353 28-02-2003 17:36:11 11.8 C 6.31 g/m*3 11.8 C 0 km/h
354 28-02-2003 17:38:10 11.8 C 6.31 g/m*3 11.8 C 0 km/h
355 28-02-2003 17:42:11 11.2 C 6.18 g/m*3 11.2 C 0 km/h
356 28-02-2003 17:44:10 11.2 C 6.18 g/m*3 11.2 C 0 km/h
357 28-02-2003 17:48:11 11.1 C 6.14 g/m*3 11.1 C 0 km/h
358 28-02-2003 17:50:10 11.1 C 6.14 g/m*3 11.1 C 0 km/h
359 28-02-2003 17:54:11 10.7 C 6.19 g/m*3 10.7 C 0 km/h
360 28-02-2003 17:56:10 10.7 C 6.19 g/m*3 10.7 C 0 km/h
361 28-02-2003 18:00:11 10.6 C 6.15 g/m*3 10.6 C 0 km/h
362 28-02-2003 18:02:10 10.6 C 6.15 g/m*3 10.6 C 0 km/h
363 28-02-2003 18:06:11 10.5 C 6.11 g/m*3 10.5 C 0 km/h
364 28-02-2003 18:08:10 10.5 C 6.11 g/m*3 10.5 C 0 km/h
365 28-02-2003 18:12:11 10.4 C 6.17 g/m*3 10.4 C 0 km/h
366 28-02-2003 18:14:10 10.4 C 6.17 g/m*3 10.4 C 0 km/h
367 28-02-2003 18:18:11 10.3 C 6.13 g/m*3 10.3 C 0 km/h
368 28-02-2003 18:20:10 10.3 C 6.13 g/m*3 10.3 C 0 km/h
369 28-02-2003 18:24:11 10.2 C 6 g/m*3 10.2 C 0 km/h
370 28-02-2003 18:26:10 10.2 C 6 g/m*3 10.2 C 0 km/h
371 28-02-2003 18:30:11 10 C 6.01 g/m*3 10 C 0 km/h
372 28-02-2003 18:32:10 10 C 6.01 g/m*3 10 C 0 km/h
373 28-02-2003 18:36:11 10 C 6.01 g/m*3 10 C 0 km/h
374 28-02-2003 18:38:10 10 C 6.01 g/m*3 10 C 0 km/h
375 28-02-2003 18:42:11 10 C 6.01 g/m*3 10 C 0 km/h
Sensor: Nr:Datum:Temp:Abs-Feuchte:Windchill:Wind:
Aussen-T/F 376 28-02-2003 18:44:10 10 C 6.01 g/m*3 10 C 0 km/h
377 28-02-2003 18:48:11 9.9 C 6.07 g/m*3 9.9 C 0 km/h
378 28-02-2003 18:50:10 9.9 C 6.07 g/m*3 9.9 C 0 km/h
379 28-02-2003 18:54:11 9.9 C 6.16 g/m*3 9.9 C 0 km/h
380 28-02-2003 18:56:10 9.9 C 6.16 g/m*3 9.9 C 0 km/h
381 28-02-2003 19:00:11 9.9 C 6.16 g/m*3 9.9 C 0 km/h
382 28-02-2003 19:02:10 9.9 C 6.16 g/m*3 9.9 C 0 km/h
383 28-02-2003 19:06:11 9.8 C 6.03 g/m*3 9.8 C 0 km/h
384 28-02-2003 19:08:10 9.8 C 6.03 g/m*3 9.8 C 0 km/h
385 28-02-2003 19:12:11 9.6 C 6.05 g/m*3 9.6 C 0 km/h
386 28-02-2003 19:14:10 9.6 C 6.05 g/m*3 9.6 C 0 km/h
387 28-02-2003 19:24:11 9.1 C 5.86 g/m*3 9.1 C 0 km/h
388 28-02-2003 19:26:10 9.1 C 5.86 g/m*3 9.1 C 0 km/h
389 28-02-2003 19:30:11 8.8 C 5.92 g/m*3 8.8 C 0 km/h
390 28-02-2003 19:32:10 8.8 C 5.92 g/m*3 8.8 C 0 km/h
391 28-02-2003 19:36:11 8.7 C 5.97 g/m*3 8.7 C 0 km/h
392 28-02-2003 19:38:10 8.7 C 5.97 g/m*3 8.7 C 0 km/h
393 28-02-2003 19:42:11 8.5 C 5.89 g/m*3 8.5 C 0 km/h
394 28-02-2003 19:44:10 8.5 C 5.89 g/m*3 8.5 C 0 km/h
395 28-02-2003 19:48:11 8.2 C 5.86 g/m*3 8.2 C 0 km/h
396 28-02-2003 19:50:10 8.2 C 5.86 g/m*3 8.2 C 0 km/h
397 28-02-2003 19:54:11 8 C 5.79 g/m*3 8 C 0 km/h
398 28-02-2003 19:56:10 8 C 5.79 g/m*3 8 C 0 km/h
399 28-02-2003 20:01:10 7.9 C 5.91 g/m*3 7.9 C 0 km/h
400 28-02-2003 20:02:10 7.9 C 5.91 g/m*3 7.9 C 0 km/h
Sensor: Nr:Datum:Temp:Abs-Feuchte:Windchill:Wind:
Aussen-T/F 401 28-02-2003 20:07:10 8 C 5.87 g/m*3 8 C 0 km/h
402 28-02-2003 20:08:10 8 C 5.87 g/m*3 8 C 0 km/h
403 28-02-2003 20:13:10 7.8 C 5.88 g/m*3 7.8 C 0 km/h
404 28-02-2003 20:14:10 7.8 C 5.88 g/m*3 7.8 C 0 km/h
405 28-02-2003 20:19:10 7.7 C 5.84 g/m*3 7.7 C 0 km/h
406 28-02-2003 20:20:10 7.7 C 5.84 g/m*3 7.7 C 0 km/h
407 28-02-2003 20:25:10 7.5 C 5.84 g/m*3 7.5 C 0 km/h
408 28-02-2003 20:26:10 7.5 C 5.84 g/m*3 7.5 C 0 km/h
409 28-02-2003 20:31:10 7.3 C 5.77 g/m*3 7.3 C 0 km/h
410 28-02-2003 20:32:10 7.3 C 5.77 g/m*3 7.3 C 0 km/h
411 28-02-2003 20:37:10 7.2 C 5.73 g/m*3 7.2 C 0 km/h
412 28-02-2003 20:38:10 7.2 C 5.73 g/m*3 7.2 C 0 km/h
413 28-02-2003 20:43:10 7.1 C 5.77 g/m*3 7.1 C 0 km/h
414 28-02-2003 20:44:10 7.1 C 5.77 g/m*3 7.1 C 0 km/h
415 28-02-2003 20:49:10 7 C 5.73 g/m*3 7 C 0 km/h
416 28-02-2003 20:50:10 7 C 5.73 g/m*3 7 C 0 km/h
417 28-02-2003 20:55:10 6.9 C 5.77 g/m*3 6.9 C 0 km/h
418 28-02-2003 20:56:10 6.9 C 5.77 g/m*3 6.9 C 0 km/h
419 28-02-2003 21:01:10 6.8 C 5.74 g/m*3 6.8 C 0 km/h
420 28-02-2003 21:02:10 6.8 C 5.74 g/m*3 6.8 C 0 km/h
421 28-02-2003 21:07:10 6.7 C 5.77 g/m*3 6.7 C 0 km/h
422 28-02-2003 21:08:10 6.7 C 5.77 g/m*3 6.7 C 0 km/h
423 28-02-2003 21:13:10 6.6 C 5.74 g/m*3 6.6 C 0 km/h
424 28-02-2003 21:14:10 6.6 C 5.74 g/m*3 6.6 C 0 km/h
425 28-02-2003 21:19:10 6.5 C 5.77 g/m*3 6.5 C 0 km/h
Sensor: Nr:Datum:Temp:Abs-Feuchte:Windchill:Wind:
Aussen-T/F 426 28-02-2003 21:20:10 6.5 C 5.77 g/m*3 6.5 C 0 km/h
427 28-02-2003 21:25:10 6.4 C 5.74 g/m*3 6.4 C 0 km/h
428 28-02-2003 21:26:10 6.4 C 5.74 g/m*3 6.4 C 0 km/h
429 28-02-2003 21:31:10 6.2 C 5.66 g/m*3 6.2 C 0 km/h
430 28-02-2003 21:32:10 6.2 C 5.66 g/m*3 6.2 C 0 km/h
431 28-02-2003 21:37:10 6 C 5.52 g/m*3 6 C 0 km/h
432 28-02-2003 21:38:10 6 C 5.52 g/m*3 6 C 0 km/h
433 28-02-2003 21:43:10 5.8 C 5.59 g/m*3 5.8 C 0 km/h
434 28-02-2003 21:44:10 5.8 C 5.59 g/m*3 5.8 C 0 km/h
435 28-02-2003 21:49:10 5.7 C 5.62 g/m*3 5.7 C 0 km/h
436 28-02-2003 21:50:10 5.7 C 5.62 g/m*3 5.7 C 0 km/h
437 28-02-2003 21:55:10 5.6 C 5.59 g/m*3 5.6 C 0 km/h
438 28-02-2003 21:56:10 5.6 C 5.59 g/m*3 5.6 C 0 km/h
439 28-02-2003 22:01:10 5.6 C 5.66 g/m*3 5.6 C 0 km/h
440 28-02-2003 22:02:10 5.6 C 5.66 g/m*3 5.6 C 0 km/h
441 28-02-2003 22:07:10 5.5 C 5.62 g/m*3 5.5 C 0 km/h
442 28-02-2003 22:08:10 5.5 C 5.62 g/m*3 5.5 C 0 km/h
443 28-02-2003 22:13:10 5.4 C 5.65 g/m*3 5.4 C 0 km/h
444 28-02-2003 22:14:10 5.4 C 5.65 g/m*3 5.4 C 0 km/h
445 28-02-2003 22:19:10 5.4 C 5.65 g/m*3 5.4 C 0 km/h
446 28-02-2003 22:20:10 5.4 C 5.65 g/m*3 5.4 C 0 km/h
447 28-02-2003 22:25:10 5.3 C 5.61 g/m*3 5.3 C 0 km/h
448 28-02-2003 22:26:10 5.3 C 5.61 g/m*3 5.3 C 0 km/h
449 28-02-2003 22:31:10 5.4 C 5.72 g/m*3 5.4 C 0 km/h
450 28-02-2003 22:32:10 5.4 C 5.72 g/m*3 5.4 C 0 km/h
Sensor: Nr:Datum:Temp:Abs-Feuchte:Windchill:Wind:
Aussen-T/F 451 28-02-2003 22:37:10 5.4 C 5.72 g/m*3 5.4 C 0 km/h
452 28-02-2003 22:38:10 5.4 C 5.72 g/m*3 5.4 C 0 km/h
453 28-02-2003 22:43:10 5.4 C 5.72 g/m*3 5.4 C 0 km/h
454 28-02-2003 22:44:10 5.4 C 5.72 g/m*3 5.4 C 0 km/h
455 28-02-2003 22:49:10 5.5 C 5.76 g/m*3 5.5 C 0 km/h
456 28-02-2003 22:50:10 5.5 C 5.76 g/m*3 5.5 C 0 km/h
457 28-02-2003 22:55:10 5.4 C 5.65 g/m*3 5.4 C 0 km/h
458 28-02-2003 22:56:10 5.4 C 5.65 g/m*3 5.4 C 0 km/h
459 28-02-2003 23:01:10 5.4 C 5.65 g/m*3 5.4 C 0 km/h
460 28-02-2003 23:02:10 5.4 C 5.65 g/m*3 5.4 C 0 km/h
461 28-02-2003 23:07:10 5.4 C 5.58 g/m*3 5.4 C 0 km/h
462 28-02-2003 23:08:10 5.4 C 5.58 g/m*3 5.4 C 0 km/h
463 28-02-2003 23:13:10 5.2 C 5.51 g/m*3 5.2 C 0 km/h
464 28-02-2003 23:14:10 5.2 C 5.51 g/m*3 5.2 C 0 km/h
465 28-02-2003 23:19:10 5.2 C 5.65 g/m*3 5.2 C 0 km/h
466 28-02-2003 23:20:10 5.2 C 5.65 g/m*3 5.2 C 0 km/h
467 28-02-2003 23:25:10 5.3 C 5.68 g/m*3 5.3 C 0 km/h
468 28-02-2003 23:26:10 5.3 C 5.68 g/m*3 5.3 C 0 km/h
469 28-02-2003 23:31:10 5.3 C 5.68 g/m*3 5.3 C 0 km/h
470 28-02-2003 23:32:10 5.3 C 5.68 g/m*3 5.3 C 0 km/h
471 28-02-2003 23:37:10 5.3 C 5.68 g/m*3 5.3 C 0 km/h
472 28-02-2003 23:38:10 5.3 C 5.68 g/m*3 5.3 C 0 km/h
473 28-02-2003 23:43:10 5.4 C 5.72 g/m*3 5.4 C 0 km/h
474 28-02-2003 23:44:10 5.4 C 5.72 g/m*3 5.4 C 0 km/h
475 28-02-2003 23:49:10 5.4 C 5.72 g/m*3 5.4 C 0 km/h
Sensor: Nr:Datum:Temp:Abs-Feuchte:Windchill:Wind:
Aussen-T/F 476 28-02-2003 23:50:10 5.4 C 5.72 g/m*3 5.4 C 0 km/h
477 28-02-2003 23:55:10 5.4 C 5.72 g/m*3 5.4 C 0 km/h
478 28-02-2003 23:56:10 5.4 C 5.72 g/m*3 5.4 C 0 km/h

Legende:
   Min
   Max


Maximal/Minimal-Werte vom 23.02.2003 - 30.09.2000

Sensor Min Max Avg
Temp
(Aussen-T/F)
°C
-- 
°C 0 °C

Die Daten stammen von einer Davis Vantage Pro 2 Wetter-Station und werden unter Linux mit der Software wview2wettercgi und aufbereitet. Alle Angaben erfolgen ohne Gewähr für ihre Vollständigkeit oder Richtigkeit.
Kontakt: Rainer Krienke krienke@uni-koblenz.de . Meine Webseiten an der Uni Koblenz oder privat.
Version: $Revision: 0.78 $